sensor_id;sensor_type;location;lat;lon;timestamp;temperature;humidity
62573;DHT22;48626;51.678;5.806;2022-11-15T00:00:21;9.10;99.90
62573;DHT22;48626;51.678;5.806;2022-11-15T00:02:46;9.10;99.90
62573;DHT22;48626;51.678;5.806;2022-11-15T00:05:12;9.10;99.90
62573;DHT22;48626;51.678;5.806;2022-11-15T00:07:37;9.10;99.90
62573;DHT22;48626;51.678;5.806;2022-11-15T00:10:03;9.10;99.90
62573;DHT22;48626;51.678;5.806;2022-11-15T00:12:29;9.20;99.90
62573;DHT22;48626;51.678;5.806;2022-11-15T00:14:55;9.20;99.90
62573;DHT22;48626;51.678;5.806;2022-11-15T00:17:20;9.20;99.90
62573;DHT22;48626;51.678;5.806;2022-11-15T00:19:46;9.20;99.90
62573;DHT22;48626;51.678;5.806;2022-11-15T00:22:12;9.20;99.90
62573;DHT22;48626;51.678;5.806;2022-11-15T00:24:37;9.20;99.90
62573;DHT22;48626;51.678;5.806;2022-11-15T00:27:03;9.20;99.90
62573;DHT22;48626;51.678;5.806;2022-11-15T00:29:28;9.20;99.90
62573;DHT22;48626;51.678;5.806;2022-11-15T00:31:54;9.20;99.90
62573;DHT22;48626;51.678;5.806;2022-11-15T00:34:19;9.20;99.90
62573;DHT22;48626;51.678;5.806;2022-11-15T00:36:45;9.30;99.90
62573;DHT22;48626;51.678;5.806;2022-11-15T00:39:11;9.30;99.90
62573;DHT22;48626;51.678;5.806;2022-11-15T00:41:36;9.30;99.90
62573;DHT22;48626;51.678;5.806;2022-11-15T00:44:02;9.40;99.90
62573;DHT22;48626;51.678;5.806;2022-11-15T00:46:28;9.40;99.90
62573;DHT22;48626;51.678;5.806;2022-11-15T00:48:53;9.40;99.90
62573;DHT22;48626;51.678;5.806;2022-11-15T00:51:19;9.40;99.90
62573;DHT22;48626;51.678;5.806;2022-11-15T00:53:44;9.50;99.90
62573;DHT22;48626;51.678;5.806;2022-11-15T00:56:10;9.50;99.90
62573;DHT22;48626;51.678;5.806;2022-11-15T00:58:35;9.60;99.90
62573;DHT22;48626;51.678;5.806;2022-11-15T01:01:12;9.60;99.90
62573;DHT22;48626;51.678;5.806;2022-11-15T01:03:39;9.60;99.90
62573;DHT22;48626;51.678;5.806;2022-11-15T01:06:06;9.60;99.90
62573;DHT22;48626;51.678;5.806;2022-11-15T01:08:32;9.60;99.90
62573;DHT22;48626;51.678;5.806;2022-11-15T01:11:09;9.60;99.90
62573;DHT22;48626;51.678;5.806;2022-11-15T01:13:36;9.60;99.90
62573;DHT22;48626;51.678;5.806;2022-11-15T01:16:14;9.70;99.90
62573;DHT22;48626;51.678;5.806;2022-11-15T01:18:41;9.70;99.90
62573;DHT22;48626;51.678;5.806;2022-11-15T01:21:12;9.60;99.90
62573;DHT22;48626;51.678;5.806;2022-11-15T01:23:38;9.70;99.90
62573;DHT22;48626;51.678;5.806;2022-11-15T01:26:07;9.70;99.90
62573;DHT22;48626;51.678;5.806;2022-11-15T01:28:34;9.80;99.90
62573;DHT22;48626;51.678;5.806;2022-11-15T01:31:06;9.70;99.90
62573;DHT22;48626;51.678;5.806;2022-11-15T01:33:34;9.70;99.90
62573;DHT22;48626;51.678;5.806;2022-11-15T01:36:15;9.70;99.90
62573;DHT22;48626;51.678;5.806;2022-11-15T01:38:41;9.70;99.90
62573;DHT22;48626;51.678;5.806;2022-11-15T01:41:17;9.80;99.90
62573;DHT22;48626;51.678;5.806;2022-11-15T01:43:43;9.80;99.90
62573;DHT22;48626;51.678;5.806;2022-11-15T01:46:15;9.80;99.90
62573;DHT22;48626;51.678;5.806;2022-11-15T01:48:44;9.90;99.90
62573;DHT22;48626;51.678;5.806;2022-11-15T01:51:13;9.80;99.90
62573;DHT22;48626;51.678;5.806;2022-11-15T01:53:43;9.80;99.90
62573;DHT22;48626;51.678;5.806;2022-11-15T01:56:13;9.90;99.90
62573;DHT22;48626;51.678;5.806;2022-11-15T01:58:43;9.90;99.90
62573;DHT22;48626;51.678;5.806;2022-11-15T02:01:10;9.90;99.90
62573;DHT22;48626;51.678;5.806;2022-11-15T02:04:01;9.90;99.90
62573;DHT22;48626;51.678;5.806;2022-11-15T02:06:27;9.80;99.90
62573;DHT22;48626;51.678;5.806;2022-11-15T02:08:53;9.90;99.90
62573;DHT22;48626;51.678;5.806;2022-11-15T02:11:19;9.80;99.90
62573;DHT22;48626;51.678;5.806;2022-11-15T02:13:45;9.90;99.90
62573;DHT22;48626;51.678;5.806;2022-11-15T02:30:29;10.10;99.90
62573;DHT22;48626;51.678;5.806;2022-11-15T02:36:00;10.20;99.90
62573;DHT22;48626;51.678;5.806;2022-11-15T02:41:11;10.20;99.90
62573;DHT22;48626;51.678;5.806;2022-11-15T02:43:54;10.30;99.90
62573;DHT22;48626;51.678;5.806;2022-11-15T02:49:14;10.40;99.90
62573;DHT22;48626;51.678;5.806;2022-11-15T02:51:41;10.40;99.90
62573;DHT22;48626;51.678;5.806;2022-11-15T02:54:12;10.40;99.90
62573;DHT22;48626;51.678;5.806;2022-11-15T02:56:39;10.50;99.90
62573;DHT22;48626;51.678;5.806;2022-11-15T03:04:44;10.70;99.90
62573;DHT22;48626;51.678;5.806;2022-11-15T03:09:54;10.70;99.90
62573;DHT22;48626;51.678;5.806;2022-11-15T03:12:30;10.80;99.90
62573;DHT22;48626;51.678;5.806;2022-11-15T03:15:20;10.80;99.90
62573;DHT22;48626;51.678;5.806;2022-11-15T03:18:10;10.90;99.90
62573;DHT22;48626;51.678;5.806;2022-11-15T03:20:40;10.90;99.90
62573;DHT22;48626;51.678;5.806;2022-11-15T03:23:09;10.90;99.90
62573;DHT22;48626;51.678;5.806;2022-11-15T03:25:41;10.90;99.90
62573;DHT22;48626;51.678;5.806;2022-11-15T03:28:10;11.00;99.90
62573;DHT22;48626;51.678;5.806;2022-11-15T03:30:38;11.00;99.90
62573;DHT22;48626;51.678;5.806;2022-11-15T03:33:04;11.00;99.90
62573;DHT22;48626;51.678;5.806;2022-11-15T03:35:35;11.10;99.90
62573;DHT22;48626;51.678;5.806;2022-11-15T03:38:16;11.10;99.90
62573;DHT22;48626;51.678;5.806;2022-11-15T03:40:59;11.20;99.90
62573;DHT22;48626;51.678;5.806;2022-11-15T03:43:47;11.20;99.90
62573;DHT22;48626;51.678;5.806;2022-11-15T03:46:22;11.20;99.90
62573;DHT22;48626;51.678;5.806;2022-11-15T03:49:04;11.20;99.90
62573;DHT22;48626;51.678;5.806;2022-11-15T03:51:31;11.30;99.90
62573;DHT22;48626;51.678;5.806;2022-11-15T03:53:57;11.30;99.90
62573;DHT22;48626;51.678;5.806;2022-11-15T03:56:23;11.30;99.90
62573;DHT22;48626;51.678;5.806;2022-11-15T03:58:48;11.30;99.90
62573;DHT22;48626;51.678;5.806;2022-11-15T04:01:14;11.40;99.90
62573;DHT22;48626;51.678;5.806;2022-11-15T04:03:39;11.40;99.90
62573;DHT22;48626;51.678;5.806;2022-11-15T04:06:05;11.40;99.90
62573;DHT22;48626;51.678;5.806;2022-11-15T04:08:31;11.40;99.90
62573;DHT22;48626;51.678;5.806;2022-11-15T04:10:56;11.40;99.90
62573;DHT22;48626;51.678;5.806;2022-11-15T04:13:22;11.50;99.90
62573;DHT22;48626;51.678;5.806;2022-11-15T04:15:48;11.50;99.90
62573;DHT22;48626;51.678;5.806;2022-11-15T04:18:13;11.50;99.90
62573;DHT22;48626;51.678;5.806;2022-11-15T04:20:39;11.60;99.90
62573;DHT22;48626;51.678;5.806;2022-11-15T04:23:23;11.50;99.90
62573;DHT22;48626;51.678;5.806;2022-11-15T04:26:17;11.60;99.90
62573;DHT22;48626;51.678;5.806;2022-11-15T04:28:43;11.60;99.90
62573;DHT22;48626;51.678;5.806;2022-11-15T04:31:27;11.70;99.90
62573;DHT22;48626;51.678;5.806;2022-11-15T04:33:53;11.70;99.90
62573;DHT22;48626;51.678;5.806;2022-11-15T04:36:19;11.70;99.90
62573;DHT22;48626;51.678;5.806;2022-11-15T04:39:04;11.70;99.90
62573;DHT22;48626;51.678;5.806;2022-11-15T04:41:29;11.70;99.90
62573;DHT22;48626;51.678;5.806;2022-11-15T04:43:55;11.70;99.90
62573;DHT22;48626;51.678;5.806;2022-11-15T04:46:22;11.70;99.90
62573;DHT22;48626;51.678;5.806;2022-11-15T04:48:49;11.70;99.90
62573;DHT22;48626;51.678;5.806;2022-11-15T04:51:14;11.70;99.90
62573;DHT22;48626;51.678;5.806;2022-11-15T04:53:40;11.70;99.90
62573;DHT22;48626;51.678;5.806;2022-11-15T04:56:06;11.70;99.90
62573;DHT22;48626;51.678;5.806;2022-11-15T04:58:32;11.70;99.90
62573;DHT22;48626;51.678;5.806;2022-11-15T05:00:57;11.70;99.90
62573;DHT22;48626;51.678;5.806;2022-11-15T05:03:23;11.80;99.90
62573;DHT22;48626;51.678;5.806;2022-11-15T05:06:07;11.70;99.90
62573;DHT22;48626;51.678;5.806;2022-11-15T05:08:33;11.70;99.90
62573;DHT22;48626;51.678;5.806;2022-11-15T05:10:58;11.70;99.90
62573;DHT22;48626;51.678;5.806;2022-11-15T05:13:24;11.70;99.90
62573;DHT22;48626;51.678;5.806;2022-11-15T05:15:50;11.70;99.90
62573;DHT22;48626;51.678;5.806;2022-11-15T05:18:15;11.80;99.90
62573;DHT22;48626;51.678;5.806;2022-11-15T05:20:41;11.70;99.90
62573;DHT22;48626;51.678;5.806;2022-11-15T05:23:07;11.80;99.90
62573;DHT22;48626;51.678;5.806;2022-11-15T05:25:32;11.70;99.90
62573;DHT22;48626;51.678;5.806;2022-11-15T05:27:58;11.70;99.90
62573;DHT22;48626;51.678;5.806;2022-11-15T05:30:24;11.70;99.90
62573;DHT22;48626;51.678;5.806;2022-11-15T05:32:50;11.70;99.90
62573;DHT22;48626;51.678;5.806;2022-11-15T05:35:29;11.70;99.90
62573;DHT22;48626;51.678;5.806;2022-11-15T05:37:56;11.70;99.90
62573;DHT22;48626;51.678;5.806;2022-11-15T05:40:21;11.70;99.90
62573;DHT22;48626;51.678;5.806;2022-11-15T05:42:48;11.70;99.90
62573;DHT22;48626;51.678;5.806;2022-11-15T05:45:14;11.70;99.90
62573;DHT22;48626;51.678;5.806;2022-11-15T05:47:40;11.70;99.90
62573;DHT22;48626;51.678;5.806;2022-11-15T05:50:06;11.70;99.90
62573;DHT22;48626;51.678;5.806;2022-11-15T05:52:36;11.70;99.90
62573;DHT22;48626;51.678;5.806;2022-11-15T05:55:03;11.70;99.90
62573;DHT22;48626;51.678;5.806;2022-11-15T05:57:29;11.70;99.90
62573;DHT22;48626;51.678;5.806;2022-11-15T05:59:55;11.70;99.90
62573;DHT22;48626;51.678;5.806;2022-11-15T06:02:21;11.70;99.90
62573;DHT22;48626;51.678;5.806;2022-11-15T06:04:46;11.70;99.90
62573;DHT22;48626;51.678;5.806;2022-11-15T06:07:12;11.70;99.90
62573;DHT22;48626;51.678;5.806;2022-11-15T06:09:37;11.70;99.90
62573;DHT22;48626;51.678;5.806;2022-11-15T06:12:03;11.80;99.90
62573;DHT22;48626;51.678;5.806;2022-11-15T06:14:29;11.80;99.90
62573;DHT22;48626;51.678;5.806;2022-11-15T06:16:55;11.80;99.90
62573;DHT22;48626;51.678;5.806;2022-11-15T06:19:20;11.80;99.90
62573;DHT22;48626;51.678;5.806;2022-11-15T06:21:46;11.80;99.90
62573;DHT22;48626;51.678;5.806;2022-11-15T06:24:12;11.90;99.90
62573;DHT22;48626;51.678;5.806;2022-11-15T06:26:37;11.80;99.90
62573;DHT22;48626;51.678;5.806;2022-11-15T06:29:03;11.90;99.90
62573;DHT22;48626;51.678;5.806;2022-11-15T06:31:29;11.90;99.90
62573;DHT22;48626;51.678;5.806;2022-11-15T06:33:55;11.90;99.90
62573;DHT22;48626;51.678;5.806;2022-11-15T06:36:21;11.90;99.90
62573;DHT22;48626;51.678;5.806;2022-11-15T06:38:46;11.90;99.90
62573;DHT22;48626;51.678;5.806;2022-11-15T06:41:13;11.90;99.90
62573;DHT22;48626;51.678;5.806;2022-11-15T06:43:40;11.90;99.90
62573;DHT22;48626;51.678;5.806;2022-11-15T06:46:06;11.90;99.90
62573;DHT22;48626;51.678;5.806;2022-11-15T06:48:33;11.90;99.90
62573;DHT22;48626;51.678;5.806;2022-11-15T06:51:00;11.90;99.90
62573;DHT22;48626;51.678;5.806;2022-11-15T06:53:27;11.90;99.90
62573;DHT22;48626;51.678;5.806;2022-11-15T06:55:52;12.00;99.90
62573;DHT22;48626;51.678;5.806;2022-11-15T06:58:20;11.90;99.90
62573;DHT22;48626;51.678;5.806;2022-11-15T07:00:46;11.90;99.90
62573;DHT22;48626;51.678;5.806;2022-11-15T07:03:11;11.90;99.90
62573;DHT22;48626;51.678;5.806;2022-11-15T07:05:37;11.90;99.90
62573;DHT22;48626;51.678;5.806;2022-11-15T07:08:03;11.90;99.90
62573;DHT22;48626;51.678;5.806;2022-11-15T07:10:29;11.90;99.90
62573;DHT22;48626;51.678;5.806;2022-11-15T07:12:56;11.90;99.90
62573;DHT22;48626;51.678;5.806;2022-11-15T07:15:25;11.90;99.90
62573;DHT22;48626;51.678;5.806;2022-11-15T07:17:51;11.90;99.90
62573;DHT22;48626;51.678;5.806;2022-11-15T07:20:17;11.90;99.90
62573;DHT22;48626;51.678;5.806;2022-11-15T07:22:44;11.90;99.90
62573;DHT22;48626;51.678;5.806;2022-11-15T07:25:12;11.90;99.90
62573;DHT22;48626;51.678;5.806;2022-11-15T07:27:38;11.90;99.90
62573;DHT22;48626;51.678;5.806;2022-11-15T07:30:04;11.90;99.90
62573;DHT22;48626;51.678;5.806;2022-11-15T07:32:30;11.90;99.90
62573;DHT22;48626;51.678;5.806;2022-11-15T07:34:56;12.00;99.90
62573;DHT22;48626;51.678;5.806;2022-11-15T07:37:22;11.90;99.90
62573;DHT22;48626;51.678;5.806;2022-11-15T07:39:47;12.00;99.90
62573;DHT22;48626;51.678;5.806;2022-11-15T07:42:13;12.00;99.90
62573;DHT22;48626;51.678;5.806;2022-11-15T07:44:57;12.00;99.90
62573;DHT22;48626;51.678;5.806;2022-11-15T07:47:23;12.00;99.90
62573;DHT22;48626;51.678;5.806;2022-11-15T07:49:48;12.00;99.90
62573;DHT22;48626;51.678;5.806;2022-11-15T07:52:14;12.00;99.90
62573;DHT22;48626;51.678;5.806;2022-11-15T07:54:39;12.00;99.90
62573;DHT22;48626;51.678;5.806;2022-11-15T07:57:05;12.00;99.90
62573;DHT22;48626;51.678;5.806;2022-11-15T07:59:32;12.10;99.90
62573;DHT22;48626;51.678;5.806;2022-11-15T08:01:58;12.10;99.90
62573;DHT22;48626;51.678;5.806;2022-11-15T08:04:24;12.10;99.90
62573;DHT22;48626;51.678;5.806;2022-11-15T08:06:52;12.10;99.90
62573;DHT22;48626;51.678;5.806;2022-11-15T08:09:18;12.10;99.90
62573;DHT22;48626;51.678;5.806;2022-11-15T08:11:43;12.10;99.90
62573;DHT22;48626;51.678;5.806;2022-11-15T08:14:09;12.10;99.90
62573;DHT22;48626;51.678;5.806;2022-11-15T08:16:34;12.00;99.90
62573;DHT22;48626;51.678;5.806;2022-11-15T08:19:00;12.00;99.90
62573;DHT22;48626;51.678;5.806;2022-11-15T08:21:26;12.00;99.90
62573;DHT22;48626;51.678;5.806;2022-11-15T08:23:51;12.00;99.90
62573;DHT22;48626;51.678;5.806;2022-11-15T08:26:17;12.10;99.90
62573;DHT22;48626;51.678;5.806;2022-11-15T08:28:43;12.10;99.90
62573;DHT22;48626;51.678;5.806;2022-11-15T08:31:16;12.10;99.90
62573;DHT22;48626;51.678;5.806;2022-11-15T08:33:43;12.10;99.90
62573;DHT22;48626;51.678;5.806;2022-11-15T08:36:16;12.10;99.90
62573;DHT22;48626;51.678;5.806;2022-11-15T08:38:42;12.10;99.90
62573;DHT22;48626;51.678;5.806;2022-11-15T08:41:21;12.10;99.90
62573;DHT22;48626;51.678;5.806;2022-11-15T08:43:48;12.10;99.90
62573;DHT22;48626;51.678;5.806;2022-11-15T08:46:14;12.10;99.90
62573;DHT22;48626;51.678;5.806;2022-11-15T08:48:40;12.10;99.90
62573;DHT22;48626;51.678;5.806;2022-11-15T08:51:05;12.10;99.90
62573;DHT22;48626;51.678;5.806;2022-11-15T08:53:31;12.10;99.90
62573;DHT22;48626;51.678;5.806;2022-11-15T08:55:57;12.10;99.90
62573;DHT22;48626;51.678;5.806;2022-11-15T08:58:22;12.20;99.90
62573;DHT22;48626;51.678;5.806;2022-11-15T09:00:48;12.20;99.90
62573;DHT22;48626;51.678;5.806;2022-11-15T09:03:14;12.20;99.90
62573;DHT22;48626;51.678;5.806;2022-11-15T09:05:40;12.20;99.90
62573;DHT22;48626;51.678;5.806;2022-11-15T09:08:06;12.20;99.90
62573;DHT22;48626;51.678;5.806;2022-11-15T09:10:31;12.20;99.90
62573;DHT22;48626;51.678;5.806;2022-11-15T09:12:57;12.20;99.90
62573;DHT22;48626;51.678;5.806;2022-11-15T09:15:23;12.20;99.90
62573;DHT22;48626;51.678;5.806;2022-11-15T09:17:49;12.20;99.90
62573;DHT22;48626;51.678;5.806;2022-11-15T09:20:15;12.20;99.90
62573;DHT22;48626;51.678;5.806;2022-11-15T09:22:40;12.20;99.90
62573;DHT22;48626;51.678;5.806;2022-11-15T09:25:07;12.30;99.90
62573;DHT22;48626;51.678;5.806;2022-11-15T09:27:33;12.50;99.90
62573;DHT22;48626;51.678;5.806;2022-11-15T09:29:58;12.60;99.90
62573;DHT22;48626;51.678;5.806;2022-11-15T09:32:28;12.60;99.90
62573;DHT22;48626;51.678;5.806;2022-11-15T09:34:53;12.80;99.90
62573;DHT22;48626;51.678;5.806;2022-11-15T09:37:19;12.90;99.90
62573;DHT22;48626;51.678;5.806;2022-11-15T09:39:45;13.20;99.90
62573;DHT22;48626;51.678;5.806;2022-11-15T09:42:44;13.30;99.90
62573;DHT22;48626;51.678;5.806;2022-11-15T09:50:48;13.80;99.90
62573;DHT22;48626;51.678;5.806;2022-11-15T09:53:22;13.80;99.90
62573;DHT22;48626;51.678;5.806;2022-11-15T09:56:00;14.00;99.90
62573;DHT22;48626;51.678;5.806;2022-11-15T09:58:37;14.10;99.90
62573;DHT22;48626;51.678;5.806;2022-11-15T10:01:12;14.20;99.90
62573;DHT22;48626;51.678;5.806;2022-11-15T10:03:40;14.50;99.90
62573;DHT22;48626;51.678;5.806;2022-11-15T10:06:21;14.80;99.90
62573;DHT22;48626;51.678;5.806;2022-11-15T10:09:34;15.00;99.90
62573;DHT22;48626;51.678;5.806;2022-11-15T10:11:36;15.20;99.90
62573;DHT22;48626;51.678;5.806;2022-11-15T10:14:23;15.40;99.90
62573;DHT22;48626;51.678;5.806;2022-11-15T10:20:07;15.90;99.90
62573;DHT22;48626;51.678;5.806;2022-11-15T10:22:41;15.80;99.90
62573;DHT22;48626;51.678;5.806;2022-11-15T10:27:36;16.00;99.90
62573;DHT22;48626;51.678;5.806;2022-11-15T10:30:06;16.00;99.30
62573;DHT22;48626;51.678;5.806;2022-11-15T10:32:36;15.90;99.90
62573;DHT22;48626;51.678;5.806;2022-11-15T10:37:47;16.30;99.90
62573;DHT22;48626;51.678;5.806;2022-11-15T10:40:20;16.60;99.90
62573;DHT22;48626;51.678;5.806;2022-11-15T10:42:46;16.90;99.90
62573;DHT22;48626;51.678;5.806;2022-11-15T10:45:33;17.00;98.00
62573;DHT22;48626;51.678;5.806;2022-11-15T10:50:42;17.10;95.30
62573;DHT22;48626;51.678;5.806;2022-11-15T10:53:40;17.20;97.30
62573;DHT22;48626;51.678;5.806;2022-11-15T10:56:12;17.00;90.50
62573;DHT22;48626;51.678;5.806;2022-11-15T10:58:43;16.80;95.60
62573;DHT22;48626;51.678;5.806;2022-11-15T11:01:15;16.60;93.90
62573;DHT22;48626;51.678;5.806;2022-11-15T11:03:42;16.50;93.50
62573;DHT22;48626;51.678;5.806;2022-11-15T11:06:10;16.30;92.90
62573;DHT22;48626;51.678;5.806;2022-11-15T11:08:36;16.20;93.20
62573;DHT22;48626;51.678;5.806;2022-11-15T11:11:03;15.90;92.90
62573;DHT22;48626;51.678;5.806;2022-11-15T11:13:31;15.60;93.70
62573;DHT22;48626;51.678;5.806;2022-11-15T11:16:42;15.30;94.00
62573;DHT22;48626;51.678;5.806;2022-11-15T11:39:11;13.90;95.60
62573;DHT22;48626;51.678;5.806;2022-11-15T11:42:06;13.80;95.20
62573;DHT22;48626;51.678;5.806;2022-11-15T11:47:40;13.50;94.30
62573;DHT22;48626;51.678;5.806;2022-11-15T11:50:20;13.40;95.00
62573;DHT22;48626;51.678;5.806;2022-11-15T11:58:16;13.30;95.20
62573;DHT22;48626;51.678;5.806;2022-11-15T12:00:55;13.30;93.80
62573;DHT22;48626;51.678;5.806;2022-11-15T12:06:18;13.30;95.10
62573;DHT22;48626;51.678;5.806;2022-11-15T12:09:15;13.30;93.90
62573;DHT22;48626;51.678;5.806;2022-11-15T12:14:34;13.30;94.10
62573;DHT22;48626;51.678;5.806;2022-11-15T12:17:00;13.30;93.90
62573;DHT22;48626;51.678;5.806;2022-11-15T12:19:26;13.40;94.00
62573;DHT22;48626;51.678;5.806;2022-11-15T12:24:43;13.40;93.40
62573;DHT22;48626;51.678;5.806;2022-11-15T12:27:45;13.40;93.00
62573;DHT22;48626;51.678;5.806;2022-11-15T12:30:20;13.50;93.80
62573;DHT22;48626;51.678;5.806;2022-11-15T12:32:58;13.50;93.60
62573;DHT22;48626;51.678;5.806;2022-11-15T12:35:38;13.50;93.10
62573;DHT22;48626;51.678;5.806;2022-11-15T12:38:09;13.50;94.10
62573;DHT22;48626;51.678;5.806;2022-11-15T12:41:14;13.50;93.50
62573;DHT22;48626;51.678;5.806;2022-11-15T12:43:44;13.50;93.50
62573;DHT22;48626;51.678;5.806;2022-11-15T12:46:13;13.50;93.90
62573;DHT22;48626;51.678;5.806;2022-11-15T12:51:09;13.50;92.70
62573;DHT22;48626;51.678;5.806;2022-11-15T12:53:35;13.50;93.00
62573;DHT22;48626;51.678;5.806;2022-11-15T12:58:58;13.50;92.80
62573;DHT22;48626;51.678;5.806;2022-11-15T13:04:27;13.40;92.00
62573;DHT22;48626;51.678;5.806;2022-11-15T13:12:01;13.40;91.30
62573;DHT22;48626;51.678;5.806;2022-11-15T13:17:03;13.40;91.40
62573;DHT22;48626;51.678;5.806;2022-11-15T13:19:36;13.40;92.10
62573;DHT22;48626;51.678;5.806;2022-11-15T13:22:06;13.40;92.70
62573;DHT22;48626;51.678;5.806;2022-11-15T13:24:52;13.40;92.10
62573;DHT22;48626;51.678;5.806;2022-11-15T13:27:19;13.50;93.00
62573;DHT22;48626;51.678;5.806;2022-11-15T13:29:45;13.50;92.50
62573;DHT22;48626;51.678;5.806;2022-11-15T13:32:13;13.50;92.40
62573;DHT22;48626;51.678;5.806;2022-11-15T13:34:43;13.50;92.80
62573;DHT22;48626;51.678;5.806;2022-11-15T13:39:49;13.60;91.50
62573;DHT22;48626;51.678;5.806;2022-11-15T13:42:17;13.60;93.20
62573;DHT22;48626;51.678;5.806;2022-11-15T13:45:01;13.60;93.00
62573;DHT22;48626;51.678;5.806;2022-11-15T13:47:28;13.60;92.90
62573;DHT22;48626;51.678;5.806;2022-11-15T13:49:57;13.60;92.30
62573;DHT22;48626;51.678;5.806;2022-11-15T13:52:28;13.60;92.10
62573;DHT22;48626;51.678;5.806;2022-11-15T13:55:22;13.60;92.40
62573;DHT22;48626;51.678;5.806;2022-11-15T13:57:53;13.50;90.70
62573;DHT22;48626;51.678;5.806;2022-11-15T14:03:22;13.70;91.90
62573;DHT22;48626;51.678;5.806;2022-11-15T14:06:11;13.70;90.90
62573;DHT22;48626;51.678;5.806;2022-11-15T14:11:27;13.60;91.40
62573;DHT22;48626;51.678;5.806;2022-11-15T14:16:45;13.60;91.60
62573;DHT22;48626;51.678;5.806;2022-11-15T14:22:24;13.60;91.00
62573;DHT22;48626;51.678;5.806;2022-11-15T14:27:38;13.50;90.90
62573;DHT22;48626;51.678;5.806;2022-11-15T14:30:04;13.50;91.80
62573;DHT22;48626;51.678;5.806;2022-11-15T14:32:44;13.50;92.00
62573;DHT22;48626;51.678;5.806;2022-11-15T14:35:21;13.60;92.40
62573;DHT22;48626;51.678;5.806;2022-11-15T14:37:47;13.50;91.80
62573;DHT22;48626;51.678;5.806;2022-11-15T14:40:15;13.50;92.40
62573;DHT22;48626;51.678;5.806;2022-11-15T14:42:43;13.50;92.30
62573;DHT22;48626;51.678;5.806;2022-11-15T14:45:17;13.50;91.80
62573;DHT22;48626;51.678;5.806;2022-11-15T14:47:44;13.40;91.90
62573;DHT22;48626;51.678;5.806;2022-11-15T14:50:15;13.40;91.20
62573;DHT22;48626;51.678;5.806;2022-11-15T14:52:41;13.40;91.70
62573;DHT22;48626;51.678;5.806;2022-11-15T14:55:23;13.40;91.90
62573;DHT22;48626;51.678;5.806;2022-11-15T14:57:49;13.40;91.50
62573;DHT22;48626;51.678;5.806;2022-11-15T15:00:15;13.40;91.90
62573;DHT22;48626;51.678;5.806;2022-11-15T15:02:43;13.30;91.20
62573;DHT22;48626;51.678;5.806;2022-11-15T15:05:18;13.30;91.70
62573;DHT22;48626;51.678;5.806;2022-11-15T15:07:45;13.30;91.20
62573;DHT22;48626;51.678;5.806;2022-11-15T15:10:11;13.30;90.80
62573;DHT22;48626;51.678;5.806;2022-11-15T15:12:38;13.30;91.30
62573;DHT22;48626;51.678;5.806;2022-11-15T15:15:04;13.30;91.30
62573;DHT22;48626;51.678;5.806;2022-11-15T15:17:30;13.20;91.00
62573;DHT22;48626;51.678;5.806;2022-11-15T15:19:55;13.20;91.30
62573;DHT22;48626;51.678;5.806;2022-11-15T15:22:21;13.20;91.20
62573;DHT22;48626;51.678;5.806;2022-11-15T15:24:51;13.20;91.10
62573;DHT22;48626;51.678;5.806;2022-11-15T15:27:16;13.10;90.90
62573;DHT22;48626;51.678;5.806;2022-11-15T15:29:42;13.10;91.20
62573;DHT22;48626;51.678;5.806;2022-11-15T15:32:09;13.10;91.50
62573;DHT22;48626;51.678;5.806;2022-11-15T15:34:35;13.10;91.40
62573;DHT22;48626;51.678;5.806;2022-11-15T15:37:09;13.10;91.70
62573;DHT22;48626;51.678;5.806;2022-11-15T15:39:43;13.10;91.20
62573;DHT22;48626;51.678;5.806;2022-11-15T15:42:08;13.10;91.40
62573;DHT22;48626;51.678;5.806;2022-11-15T15:44:34;13.00;92.00
62573;DHT22;48626;51.678;5.806;2022-11-15T15:47:00;13.00;92.20
62573;DHT22;48626;51.678;5.806;2022-11-15T15:49:25;13.00;92.20
62573;DHT22;48626;51.678;5.806;2022-11-15T15:51:51;13.00;92.40
62573;DHT22;48626;51.678;5.806;2022-11-15T15:54:24;13.00;93.00
62573;DHT22;48626;51.678;5.806;2022-11-15T15:56:50;13.00;92.80
62573;DHT22;48626;51.678;5.806;2022-11-15T15:59:16;13.00;92.60
62573;DHT22;48626;51.678;5.806;2022-11-15T16:01:41;13.00;93.00
62573;DHT22;48626;51.678;5.806;2022-11-15T16:04:07;13.00;93.20
62573;DHT22;48626;51.678;5.806;2022-11-15T16:06:36;13.00;93.30
62573;DHT22;48626;51.678;5.806;2022-11-15T16:09:03;13.00;93.40
62573;DHT22;48626;51.678;5.806;2022-11-15T16:11:29;13.00;93.50
62573;DHT22;48626;51.678;5.806;2022-11-15T16:13:54;13.00;93.80
62573;DHT22;48626;51.678;5.806;2022-11-15T16:16:21;13.00;93.90
62573;DHT22;48626;51.678;5.806;2022-11-15T16:18:47;13.00;94.20
62573;DHT22;48626;51.678;5.806;2022-11-15T16:21:15;13.00;94.30
62573;DHT22;48626;51.678;5.806;2022-11-15T16:23:41;13.00;94.50
62573;DHT22;48626;51.678;5.806;2022-11-15T16:26:21;13.00;94.70
62573;DHT22;48626;51.678;5.806;2022-11-15T16:28:49;13.00;94.90
62573;DHT22;48626;51.678;5.806;2022-11-15T16:31:14;13.00;95.00
62573;DHT22;48626;51.678;5.806;2022-11-15T16:33:42;13.00;95.20
62573;DHT22;48626;51.678;5.806;2022-11-15T16:36:26;13.00;95.50
62573;DHT22;48626;51.678;5.806;2022-11-15T16:38:52;13.00;95.60
62573;DHT22;48626;51.678;5.806;2022-11-15T16:41:18;13.00;95.60
62573;DHT22;48626;51.678;5.806;2022-11-15T16:43:48;13.00;95.90
62573;DHT22;48626;51.678;5.806;2022-11-15T16:46:19;12.90;96.10
62573;DHT22;48626;51.678;5.806;2022-11-15T16:48:46;13.00;96.20
62573;DHT22;48626;51.678;5.806;2022-11-15T16:51:12;13.00;96.30
62573;DHT22;48626;51.678;5.806;2022-11-15T16:53:38;13.00;96.50
62573;DHT22;48626;51.678;5.806;2022-11-15T16:56:24;13.00;96.70
62573;DHT22;48626;51.678;5.806;2022-11-15T16:58:51;13.00;97.20
62573;DHT22;48626;51.678;5.806;2022-11-15T17:01:25;13.00;97.60
62573;DHT22;48626;51.678;5.806;2022-11-15T17:03:51;12.90;98.00
62573;DHT22;48626;51.678;5.806;2022-11-15T17:06:17;12.90;98.90
62573;DHT22;48626;51.678;5.806;2022-11-15T17:08:44;12.90;98.70
62573;DHT22;48626;51.678;5.806;2022-11-15T17:11:21;12.80;99.10
62573;DHT22;48626;51.678;5.806;2022-11-15T17:13:47;12.80;99.90
62573;DHT22;48626;51.678;5.806;2022-11-15T17:16:15;12.70;99.90
62573;DHT22;48626;51.678;5.806;2022-11-15T17:18:42;12.70;99.90
62573;DHT22;48626;51.678;5.806;2022-11-15T17:21:16;12.70;99.90
62573;DHT22;48626;51.678;5.806;2022-11-15T17:23:42;12.70;99.90
62573;DHT22;48626;51.678;5.806;2022-11-15T17:26:09;12.70;99.90
62573;DHT22;48626;51.678;5.806;2022-11-15T17:28:36;12.70;99.90
62573;DHT22;48626;51.678;5.806;2022-11-15T17:31:06;12.70;99.90
62573;DHT22;48626;51.678;5.806;2022-11-15T17:33:32;12.70;99.90
62573;DHT22;48626;51.678;5.806;2022-11-15T17:35:59;12.70;99.90
62573;DHT22;48626;51.678;5.806;2022-11-15T17:38:26;12.70;99.90
62573;DHT22;48626;51.678;5.806;2022-11-15T17:41:12;12.70;99.90
62573;DHT22;48626;51.678;5.806;2022-11-15T17:43:39;12.70;99.90